createdAt,value
2019-02-11T00:00:34.795Z,5.00
2019-02-11T00:03:01.022Z,5.10
2019-02-11T00:05:27.235Z,5.10
2019-02-11T00:07:53.363Z,5.20
2019-02-11T00:10:19.663Z,5.20
2019-02-11T00:12:45.741Z,5.20
2019-02-11T00:15:12.083Z,5.20
2019-02-11T00:17:38.187Z,5.20
2019-02-11T00:20:04.395Z,5.20
2019-02-11T00:22:30.517Z,5.20
2019-02-11T00:24:56.627Z,5.20
2019-02-11T00:27:42.579Z,5.20
2019-02-11T00:30:09.876Z,5.10
2019-02-11T00:32:35.979Z,5.20
2019-02-11T00:35:02.199Z,5.20
2019-02-11T00:37:28.339Z,5.10
2019-02-11T00:39:54.413Z,5.10
2019-02-11T00:42:20.517Z,5.10
2019-02-11T00:44:46.656Z,5.10
2019-02-11T00:47:12.842Z,5.20
2019-02-11T00:49:38.922Z,5.10
2019-02-11T00:52:05.042Z,5.10
2019-02-11T00:54:31.207Z,5.10
2019-02-11T00:56:57.432Z,5.20
2019-02-11T00:59:23.505Z,5.10
2019-02-11T01:01:49.645Z,5.20
2019-02-11T01:04:15.768Z,5.20
2019-02-11T01:06:41.870Z,5.10
2019-02-11T01:09:07.980Z,5.10
2019-02-11T01:11:34.051Z,5.00
2019-02-11T01:14:00.205Z,4.90
2019-02-11T01:16:26.330Z,4.90
2019-02-11T01:18:52.426Z,5.00
2019-02-11T01:21:18.539Z,4.90
2019-02-11T01:23:44.674Z,4.90
2019-02-11T01:26:10.876Z,4.90
2019-02-11T01:28:37.005Z,4.90
2019-02-11T01:31:03.368Z,4.90
2019-02-11T01:33:29.545Z,4.80
2019-02-11T01:35:55.790Z,4.90
2019-02-11T01:38:21.967Z,5.00
2019-02-11T01:40:48.112Z,4.90
2019-02-11T01:43:14.180Z,4.90
2019-02-11T01:45:40.260Z,4.80
2019-02-11T01:48:06.384Z,4.80
2019-02-11T01:50:32.478Z,4.80
2019-02-11T01:52:58.620Z,4.80
2019-02-11T01:55:24.732Z,4.80
2019-02-11T01:57:50.842Z,4.80
2019-02-11T02:00:16.938Z,4.80
2019-02-11T02:02:43.077Z,4.70
2019-02-11T02:05:09.256Z,4.70
2019-02-11T02:07:35.365Z,4.80
2019-02-11T02:10:02.730Z,4.80
2019-02-11T02:12:28.958Z,4.70
2019-02-11T02:14:55.083Z,4.80
2019-02-11T02:17:21.246Z,4.80
2019-02-11T02:19:47.542Z,4.80
2019-02-11T02:22:13.657Z,4.70
2019-02-11T02:24:39.761Z,4.70
2019-02-11T02:27:05.878Z,4.60
2019-02-11T02:29:32.014Z,4.60
2019-02-11T02:31:58.083Z,4.60
2019-02-11T02:34:24.469Z,4.60
2019-02-11T02:36:50.914Z,4.70
2019-02-11T02:39:16.990Z,4.70
2019-02-11T02:41:43.459Z,4.60
2019-02-11T02:44:09.547Z,4.60
2019-02-11T02:46:35.802Z,4.60
2019-02-11T02:49:01.916Z,4.50
2019-02-11T02:51:28.091Z,4.50
2019-02-11T02:53:54.221Z,4.40
2019-02-11T02:56:20.408Z,4.40
2019-02-11T02:58:46.553Z,4.40
2019-02-11T03:01:12.706Z,4.30
2019-02-11T03:03:39.079Z,4.30
2019-02-11T03:06:05.200Z,4.20
2019-02-11T03:08:31.370Z,4.10
2019-02-11T03:10:57.481Z,4.10
2019-02-11T03:13:23.587Z,4.10
2019-02-11T03:15:49.664Z,4.00
2019-02-11T03:18:15.930Z,3.90
2019-02-11T03:20:42.085Z,3.90
2019-02-11T03:23:08.283Z,3.90
2019-02-11T03:25:34.368Z,3.90
2019-02-11T03:28:00.454Z,3.80
2019-02-11T03:30:26.562Z,3.80
2019-02-11T03:32:52.680Z,3.90
2019-02-11T03:35:19.073Z,3.70
2019-02-11T03:37:45.205Z,3.80
2019-02-11T03:40:11.602Z,3.90
2019-02-11T03:42:37.691Z,3.80
2019-02-11T03:45:09.800Z,3.80
2019-02-11T03:47:35.989Z,3.70
2019-02-11T03:50:03.991Z,3.70
2019-02-11T03:52:30.176Z,3.70
2019-02-11T03:54:56.452Z,3.70
2019-02-11T03:57:22.778Z,3.70
2019-02-11T03:59:48.902Z,3.70
2019-02-11T04:02:15.239Z,3.60
2019-02-11T04:04:41.401Z,3.70
2019-02-11T04:07:07.571Z,3.70
2019-02-11T04:09:33.944Z,3.80
2019-02-11T04:12:00.085Z,3.70
2019-02-11T04:14:26.244Z,3.80
2019-02-11T04:16:52.397Z,3.70
2019-02-11T04:19:18.626Z,3.80
2019-02-11T04:21:44.857Z,3.70
2019-02-11T04:24:10.940Z,3.70
2019-02-11T04:26:37.070Z,3.70
2019-02-11T04:29:03.308Z,3.70
2019-02-11T04:31:29.435Z,3.70
2019-02-11T04:33:58.203Z,3.70
2019-02-11T04:36:23.530Z,3.50
2019-02-11T04:38:49.758Z,3.60
2019-02-11T04:41:15.829Z,3.60
2019-02-11T04:43:41.947Z,3.50
2019-02-11T04:46:08.028Z,3.60
2019-02-11T04:48:34.118Z,3.60
2019-02-11T04:51:00.195Z,3.60
2019-02-11T04:53:26.334Z,3.60
2019-02-11T04:55:52.449Z,3.50
2019-02-11T04:58:18.550Z,3.50
2019-02-11T05:00:44.682Z,3.40
2019-02-11T05:03:10.767Z,3.40
2019-02-11T05:05:36.840Z,3.40
2019-02-11T05:08:03.085Z,3.40
2019-02-11T05:10:29.272Z,3.40
2019-02-11T05:12:55.412Z,3.30
2019-02-11T05:15:21.532Z,3.30
2019-02-11T05:17:47.608Z,3.20
2019-02-11T05:20:13.814Z,3.20
2019-02-11T05:22:40.010Z,3.30
2019-02-11T05:27:47.760Z,3.30
2019-02-11T05:30:13.915Z,3.20
2019-02-11T05:32:40.140Z,3.20
2019-02-11T05:35:07.127Z,3.10
2019-02-11T05:37:33.251Z,3.10
2019-02-11T05:39:59.445Z,3.10
2019-02-11T05:42:25.624Z,3.00
2019-02-11T05:44:53.923Z,3.10
2019-02-11T05:47:19.710Z,3.10
2019-02-11T05:49:45.846Z,3.10
2019-02-11T05:52:11.957Z,3.10
2019-02-11T05:54:38.239Z,3.10
2019-02-11T05:57:04.473Z,3.20
2019-02-11T05:59:30.650Z,3.20
2019-02-11T06:01:56.748Z,3.20
2019-02-11T06:04:22.820Z,3.30
2019-02-11T06:06:48.923Z,3.20
2019-02-11T06:09:15.038Z,3.30
2019-02-11T06:11:41.164Z,3.20
2019-02-11T06:14:07.294Z,3.30
2019-02-11T06:16:33.529Z,3.40
2019-02-11T06:18:59.640Z,3.30
2019-02-11T06:21:25.828Z,3.40
2019-02-11T06:23:51.955Z,3.50
2019-02-11T06:26:18.177Z,3.40
2019-02-11T06:28:44.310Z,3.50
2019-02-11T06:31:10.446Z,3.50
2019-02-11T06:33:36.574Z,3.40
2019-02-11T06:36:11.463Z,3.50
2019-02-11T06:38:30.712Z,3.50
2019-02-11T06:40:56.924Z,3.60
2019-02-11T06:43:23.013Z,3.50
2019-02-11T06:45:49.103Z,3.50
2019-02-11T06:48:15.197Z,3.60
2019-02-11T06:50:41.322Z,3.60
2019-02-11T06:53:07.515Z,3.60
2019-02-11T06:55:33.602Z,3.70
2019-02-11T06:57:59.706Z,3.70
2019-02-11T07:00:25.947Z,3.70
2019-02-11T07:02:52.123Z,3.80
2019-02-11T07:05:18.229Z,3.90
2019-02-11T07:07:44.319Z,3.90
2019-02-11T07:10:10.639Z,3.90
2019-02-11T07:12:36.970Z,3.80
2019-02-11T07:15:06.701Z,3.80
2019-02-11T07:17:32.819Z,3.90
2019-02-11T07:19:59.010Z,3.90
2019-02-11T07:22:25.143Z,3.90
2019-02-11T07:24:51.358Z,3.90
2019-02-11T07:27:17.509Z,3.80
2019-02-11T07:29:43.755Z,3.80
2019-02-11T07:32:10.041Z,3.70
2019-02-11T07:34:36.124Z,3.80
2019-02-11T07:37:02.217Z,3.80
2019-02-11T07:39:28.285Z,3.90
2019-02-11T07:42:14.645Z,3.80
2019-02-11T07:44:43.123Z,3.90
2019-02-11T07:47:09.249Z,3.80
2019-02-11T07:49:35.691Z,3.80
2019-02-11T07:52:02.011Z,3.80
2019-02-11T07:54:28.249Z,3.80
2019-02-11T07:56:54.379Z,3.80
2019-02-11T07:59:20.801Z,3.80
2019-02-11T08:01:46.947Z,3.80
2019-02-11T08:04:13.101Z,3.80
2019-02-11T08:06:39.277Z,3.90
2019-02-11T08:09:07.535Z,3.90
2019-02-11T08:11:33.677Z,3.90
2019-02-11T08:13:59.811Z,4.00
2019-02-11T08:16:25.903Z,4.00
2019-02-11T08:18:52.059Z,3.90
2019-02-11T08:21:18.254Z,3.90
2019-02-11T08:23:44.329Z,3.90
2019-02-11T08:26:10.503Z,3.90
2019-02-11T08:28:36.669Z,4.00
2019-02-11T08:31:03.649Z,4.00
2019-02-11T08:33:30.509Z,4.00
2019-02-11T08:35:56.781Z,3.90
2019-02-11T08:38:22.906Z,3.90
2019-02-11T08:40:49.107Z,3.90
2019-02-11T08:43:15.197Z,3.90
2019-02-11T08:45:46.915Z,3.80
2019-02-11T08:48:09.399Z,3.90
2019-02-11T08:50:35.529Z,3.90
2019-02-11T08:53:01.771Z,3.90
2019-02-11T08:55:27.935Z,3.90
2019-02-11T08:57:54.028Z,4.00
2019-02-11T09:00:20.288Z,3.90
2019-02-11T09:02:46.507Z,4.00
2019-02-11T09:05:12.921Z,4.00
2019-02-11T09:07:39.028Z,4.00
2019-02-11T09:10:08.401Z,4.00
2019-02-11T09:12:34.522Z,4.10
2019-02-11T09:15:00.875Z,4.10
2019-02-11T09:17:26.994Z,4.00
2019-02-11T09:19:53.121Z,4.00
2019-02-11T09:22:19.184Z,4.00
2019-02-11T09:24:45.310Z,4.00
2019-02-11T09:27:11.506Z,4.00
2019-02-11T09:29:39.345Z,4.10
2019-02-11T09:32:05.570Z,4.10
2019-02-11T09:34:31.806Z,4.00
2019-02-11T09:36:57.892Z,4.10
2019-02-11T09:39:24.137Z,4.20
2019-02-11T09:41:50.457Z,4.20
2019-02-11T09:44:16.551Z,4.30
2019-02-11T09:46:42.691Z,4.20
2019-02-11T09:49:08.916Z,4.20
2019-02-11T09:51:38.833Z,4.20
2019-02-11T09:54:05.256Z,4.20
2019-02-11T09:56:31.454Z,4.20
2019-02-11T09:58:57.583Z,4.30
2019-02-11T10:01:23.813Z,4.40
2019-02-11T10:03:49.949Z,4.30
2019-02-11T10:06:16.034Z,4.30
2019-02-11T10:08:42.150Z,4.40
2019-02-11T10:11:08.244Z,4.40
2019-02-11T10:13:34.374Z,4.40
2019-02-11T10:16:00.598Z,4.40
2019-02-11T10:18:26.660Z,4.60
2019-02-11T10:20:52.732Z,4.80
2019-02-11T10:23:18.811Z,4.70
2019-02-11T10:25:44.898Z,4.80
2019-02-11T10:28:11.297Z,4.70
2019-02-11T10:30:37.607Z,4.70
2019-02-11T10:33:04.014Z,4.70
2019-02-11T10:35:30.091Z,4.80
2019-02-11T10:37:56.203Z,4.80
2019-02-11T10:40:22.620Z,4.80
2019-02-11T10:42:48.683Z,5.00
2019-02-11T10:45:14.944Z,5.00
2019-02-11T10:47:43.132Z,5.10
2019-02-11T10:50:11.574Z,5.10
2019-02-11T10:52:37.720Z,5.10
2019-02-11T10:55:07.336Z,5.10
2019-02-11T10:57:33.478Z,5.20
2019-02-11T10:59:59.695Z,5.10
2019-02-11T11:02:26.012Z,5.20
2019-02-11T11:04:52.246Z,5.10
2019-02-11T11:07:18.535Z,5.20
2019-02-11T11:09:44.594Z,5.10
2019-02-11T11:12:10.779Z,5.10
2019-02-11T11:14:36.954Z,5.00
2019-02-11T11:17:05.731Z,5.00
2019-02-11T11:19:32.062Z,5.00
2019-02-11T11:21:58.366Z,5.00
2019-02-11T11:24:24.442Z,5.00
2019-02-11T11:26:50.653Z,4.90
2019-02-11T11:29:16.818Z,4.90
2019-02-11T11:31:43.188Z,4.90
2019-02-11T11:34:09.348Z,4.80
2019-02-11T11:36:35.542Z,4.90
2019-02-11T11:39:03.624Z,5.00
2019-02-11T11:41:29.795Z,5.10
2019-02-11T11:43:55.919Z,5.10
2019-02-11T11:46:21.997Z,5.10
2019-02-11T11:48:48.136Z,5.30
2019-02-11T11:51:15.069Z,5.30
2019-02-11T11:53:41.201Z,5.40
2019-02-11T11:56:07.483Z,5.30
2019-02-11T11:58:33.863Z,5.20
2019-02-11T12:01:00.180Z,5.30
2019-02-11T12:03:26.471Z,5.40
2019-02-11T12:05:52.699Z,5.50
2019-02-11T12:08:18.874Z,5.80
2019-02-11T12:10:45.074Z,5.70
2019-02-11T12:13:22.481Z,5.70
2019-02-11T12:15:39.875Z,5.80
2019-02-11T12:18:06.083Z,5.80
2019-02-11T12:20:33.799Z,5.80
2019-02-11T12:23:00.199Z,5.60
2019-02-11T12:25:26.405Z,5.60
2019-02-11T12:27:52.500Z,5.60
2019-02-11T12:30:21.630Z,5.50
2019-02-11T12:32:48.008Z,5.50
2019-02-11T12:35:14.337Z,5.50
2019-02-11T12:37:40.606Z,5.50
2019-02-11T12:40:09.887Z,5.50
2019-02-11T12:42:36.198Z,5.40
2019-02-11T12:45:05.047Z,5.40
2019-02-11T12:47:31.249Z,5.40
2019-02-11T12:49:57.499Z,5.40
2019-02-11T12:52:23.698Z,5.50
2019-02-11T12:54:50.003Z,5.50
2019-02-11T12:57:16.137Z,5.50
2019-02-11T12:59:42.321Z,5.40
2019-02-11T13:02:08.720Z,5.40
2019-02-11T13:04:34.824Z,5.40
2019-02-11T13:07:00.978Z,5.40
2019-02-11T13:09:27.198Z,5.40
2019-02-11T13:11:53.419Z,5.50
2019-02-11T13:14:19.578Z,5.50
2019-02-11T13:16:45.713Z,5.50
2019-02-11T13:19:11.878Z,5.50
2019-02-11T13:21:38.065Z,5.50
2019-02-11T13:24:04.185Z,5.50
2019-02-11T13:26:30.343Z,5.50
2019-02-11T13:28:56.679Z,5.50
2019-02-11T13:31:22.888Z,5.60
2019-02-11T13:33:49.075Z,5.70
2019-02-11T13:36:15.195Z,5.60
2019-02-11T13:38:41.543Z,5.60
2019-02-11T13:41:07.711Z,5.50
2019-02-11T13:43:33.864Z,5.50
2019-02-11T13:46:00.085Z,5.50
2019-02-11T13:48:26.508Z,5.50
2019-02-11T13:50:53.139Z,5.50
2019-02-11T13:53:19.517Z,5.40
2019-02-11T13:55:45.751Z,5.40
2019-02-11T13:58:11.991Z,5.40
2019-02-11T14:00:38.604Z,5.50
2019-02-11T14:03:06.279Z,5.40
2019-02-11T14:05:32.674Z,5.40
2019-02-11T14:08:00.020Z,5.40
2019-02-11T14:10:26.501Z,5.40
2019-02-11T14:12:52.814Z,5.50
2019-02-11T14:15:20.838Z,5.50
2019-02-11T14:17:47.233Z,5.50
2019-02-11T14:20:16.291Z,5.50
2019-02-11T14:22:42.468Z,5.50
2019-02-11T14:25:08.899Z,5.50
2019-02-11T14:27:35.238Z,5.40
2019-02-11T14:30:02.229Z,5.40
2019-02-11T14:32:31.319Z,5.50
2019-02-11T14:34:56.568Z,5.50
2019-02-11T14:37:22.875Z,5.40
2019-02-11T14:39:49.107Z,5.40
2019-02-11T14:42:15.655Z,5.40
2019-02-11T14:44:42.042Z,5.40
2019-02-11T14:47:13.369Z,5.40
2019-02-11T14:49:39.631Z,5.50
2019-02-11T14:52:05.985Z,5.40
2019-02-11T14:54:32.136Z,5.40
2019-02-11T14:56:58.234Z,5.50
2019-02-11T14:59:24.459Z,5.50
2019-02-11T15:01:50.548Z,5.50
2019-02-11T15:04:16.693Z,5.50
2019-02-11T15:06:43.861Z,5.50
2019-02-11T15:09:10.087Z,5.40
2019-02-11T15:11:36.324Z,5.40
2019-02-11T15:14:02.411Z,5.40
2019-02-11T15:16:28.678Z,5.50
2019-02-11T15:18:54.922Z,5.60
2019-02-11T15:21:21.130Z,5.80
2019-02-11T15:23:47.247Z,5.70
2019-02-11T15:26:13.433Z,5.60
2019-02-11T15:28:39.531Z,5.50
2019-02-11T15:31:05.759Z,5.50
2019-02-11T15:33:32.008Z,5.50
2019-02-11T15:35:58.209Z,5.40
2019-02-11T15:38:24.347Z,5.40
2019-02-11T15:40:50.696Z,5.40
2019-02-11T15:43:16.874Z,5.30
2019-02-11T15:45:42.965Z,5.40
2019-02-11T15:48:09.098Z,5.40
2019-02-11T15:50:35.219Z,5.30
2019-02-11T15:53:01.341Z,5.40
2019-02-11T15:55:27.427Z,5.40
2019-02-11T15:57:53.557Z,5.30
2019-02-11T16:00:22.483Z,5.40
2019-02-11T16:02:48.576Z,5.40
2019-02-11T16:05:16.711Z,5.30
2019-02-11T16:07:43.258Z,5.30
2019-02-11T16:10:12.045Z,5.30
2019-02-11T16:12:38.267Z,5.30
2019-02-11T16:15:07.383Z,5.20
2019-02-11T16:17:33.524Z,5.30
2019-02-11T16:19:59.725Z,5.30
2019-02-11T16:22:26.012Z,5.20
2019-02-11T16:24:52.142Z,5.40
2019-02-11T16:27:18.364Z,5.30
2019-02-11T16:29:44.773Z,5.30
2019-02-11T16:32:11.366Z,5.30
2019-02-11T16:34:37.532Z,5.30
2019-02-11T16:37:03.894Z,5.20
2019-02-11T16:39:29.970Z,5.20
2019-02-11T16:41:56.080Z,5.20
2019-02-11T16:44:22.225Z,5.20
2019-02-11T16:46:48.424Z,5.20
2019-02-11T16:49:14.549Z,5.20
2019-02-11T16:51:40.722Z,5.20
2019-02-11T16:54:07.075Z,5.20
2019-02-11T16:56:33.389Z,5.20
2019-02-11T16:58:59.570Z,5.20
2019-02-11T17:01:25.700Z,5.20
2019-02-11T17:03:51.892Z,5.20
2019-02-11T17:06:18.130Z,5.10
2019-02-11T17:08:44.272Z,5.10
2019-02-11T17:11:10.656Z,5.10
2019-02-11T17:13:36.810Z,5.10
2019-02-11T17:16:03.242Z,5.00
2019-02-11T17:18:29.430Z,5.00
2019-02-11T17:20:55.684Z,5.00
2019-02-11T17:23:21.904Z,5.00
2019-02-11T17:25:48.138Z,5.10
2019-02-11T17:28:14.322Z,5.10
2019-02-11T17:30:42.003Z,5.00
2019-02-11T17:33:08.285Z,5.10
2019-02-11T17:35:34.508Z,5.10
2019-02-11T17:38:00.614Z,4.90
2019-02-11T17:40:26.826Z,4.30
2019-02-11T17:42:52.948Z,4.00
2019-02-11T17:45:22.473Z,3.90
2019-02-11T17:47:48.818Z,4.00
2019-02-11T17:50:15.034Z,4.00
2019-02-11T17:52:41.462Z,4.10
2019-02-11T17:55:10.082Z,4.10
2019-02-11T17:57:36.258Z,4.10
2019-02-11T18:00:06.500Z,4.00
2019-02-11T18:02:34.809Z,4.10
2019-02-11T18:05:01.176Z,4.10
2019-02-11T18:07:27.376Z,4.10
2019-02-11T18:09:53.472Z,4.10
2019-02-11T18:12:19.862Z,4.10
2019-02-11T18:14:46.052Z,4.20
2019-02-11T18:17:12.179Z,4.20
2019-02-11T18:19:38.408Z,4.20
2019-02-11T18:22:04.794Z,4.20
2019-02-11T18:24:30.937Z,4.20
2019-02-11T18:26:57.022Z,4.20
2019-02-11T18:29:23.337Z,4.20
2019-02-11T18:31:49.527Z,4.20
2019-02-11T18:34:15.726Z,4.20
2019-02-11T18:36:41.928Z,4.10
2019-02-11T18:39:08.424Z,4.10
2019-02-11T18:41:34.575Z,4.10
2019-02-11T18:44:01.774Z,4.00
2019-02-11T18:46:27.962Z,4.00
2019-02-11T18:48:54.100Z,4.10
2019-02-11T18:51:20.311Z,4.00
2019-02-11T18:53:46.432Z,4.00
2019-02-11T18:56:12.683Z,4.00
2019-02-11T18:58:38.901Z,4.00
2019-02-11T19:01:05.171Z,3.90
2019-02-11T19:03:31.360Z,3.90
2019-02-11T19:05:57.499Z,3.90
2019-02-11T19:08:23.683Z,3.90
2019-02-11T19:10:49.834Z,3.90
2019-02-11T19:13:16.004Z,3.90
2019-02-11T19:15:42.095Z,3.80
2019-02-11T19:18:08.505Z,3.90
2019-02-11T19:20:34.730Z,3.90
2019-02-11T19:23:01.818Z,3.80
2019-02-11T19:25:28.127Z,3.70
2019-02-11T19:27:54.320Z,3.70
2019-02-11T19:30:22.568Z,3.70
2019-02-11T19:32:49.039Z,3.60
2019-02-11T19:35:15.227Z,3.70
2019-02-11T19:37:41.397Z,3.60
2019-02-11T19:40:11.085Z,3.70
2019-02-11T19:42:37.270Z,3.70
2019-02-11T19:45:07.327Z,3.70
2019-02-11T19:47:33.919Z,3.70
2019-02-11T19:50:00.257Z,3.70
2019-02-11T19:52:26.429Z,3.70
2019-02-11T19:54:52.871Z,3.70
2019-02-11T19:57:19.007Z,3.60
2019-02-11T19:59:45.210Z,3.60
2019-02-11T20:02:11.431Z,3.60
2019-02-11T20:04:37.792Z,3.60
2019-02-11T20:07:03.959Z,3.60
2019-02-11T20:09:32.868Z,3.50
2019-02-11T20:11:58.451Z,3.50
2019-02-11T20:14:24.547Z,3.60
2019-02-11T20:16:50.704Z,3.50
2019-02-11T20:19:16.895Z,3.50
2019-02-11T20:21:43.033Z,3.50
2019-02-11T20:24:09.705Z,3.40
2019-02-11T20:26:35.993Z,3.50
2019-02-11T20:29:02.137Z,3.40
2019-02-11T20:31:28.247Z,3.40
2019-02-11T20:33:54.382Z,3.40
2019-02-11T20:36:20.657Z,3.30
2019-02-11T20:38:46.883Z,3.30
2019-02-11T20:41:13.310Z,3.40
2019-02-11T20:43:39.397Z,3.40
2019-02-11T20:46:05.553Z,3.40
2019-02-11T20:48:31.674Z,3.30
2019-02-11T20:50:57.781Z,3.40
2019-02-11T20:53:23.915Z,3.30
2019-02-11T20:55:50.150Z,3.30
2019-02-11T20:58:16.419Z,3.30
2019-02-11T21:00:42.660Z,3.30
2019-02-11T21:03:09.026Z,3.40
2019-02-11T21:05:35.194Z,3.20
2019-02-11T21:08:01.354Z,3.30
2019-02-11T21:10:27.687Z,3.40
2019-02-11T21:12:54.002Z,3.40
2019-02-11T21:15:20.464Z,3.50
2019-02-11T21:17:46.958Z,3.40
2019-02-11T21:20:35.006Z,3.30
2019-02-11T21:23:01.427Z,3.40
2019-02-11T21:25:27.599Z,3.20
2019-02-11T21:27:53.797Z,3.20
2019-02-11T21:30:20.133Z,3.20
2019-02-11T21:32:46.530Z,3.20
2019-02-11T21:35:12.667Z,3.20
2019-02-11T21:37:39.971Z,3.10
2019-02-11T21:40:06.817Z,3.10
2019-02-11T21:42:32.966Z,3.20
2019-02-11T21:44:59.334Z,3.00
2019-02-11T21:47:25.577Z,3.00
2019-02-11T21:49:51.811Z,3.10
2019-02-11T21:52:17.931Z,3.00
2019-02-11T21:54:44.166Z,3.00
2019-02-11T21:57:10.400Z,2.90
2019-02-11T21:59:36.842Z,2.90
2019-02-11T22:02:03.170Z,2.90
2019-02-11T22:04:29.305Z,3.00
2019-02-11T22:06:55.453Z,2.90
2019-02-11T22:09:21.733Z,2.90
2019-02-11T22:11:47.899Z,2.90
2019-02-11T22:14:14.138Z,2.90
2019-02-11T22:16:40.263Z,3.00
2019-02-11T22:19:06.378Z,3.00
2019-02-11T22:21:32.478Z,3.00
2019-02-11T22:23:58.602Z,2.90
2019-02-11T22:26:24.792Z,3.00
2019-02-11T22:28:51.051Z,2.90
2019-02-11T22:31:17.164Z,2.90
2019-02-11T22:33:43.410Z,2.70
2019-02-11T22:36:09.532Z,2.80
2019-02-11T22:38:35.981Z,2.80
2019-02-11T22:41:02.061Z,2.80
2019-02-11T22:43:28.232Z,2.70
2019-02-11T22:45:54.437Z,2.60
2019-02-11T22:48:20.568Z,2.60
2019-02-11T22:50:46.698Z,2.60
2019-02-11T22:53:12.898Z,2.60
2019-02-11T22:55:39.042Z,2.60
2019-02-11T22:58:05.128Z,2.50
2019-02-11T23:00:45.662Z,2.50
2019-02-11T23:03:12.404Z,2.60
2019-02-11T23:05:38.757Z,2.50
2019-02-11T23:08:04.978Z,2.60
2019-02-11T23:10:31.116Z,2.60
2019-02-11T23:12:57.464Z,2.50
2019-02-11T23:15:23.649Z,2.60
2019-02-11T23:17:49.738Z,2.60
2019-02-11T23:20:15.903Z,2.50
2019-02-11T23:22:42.124Z,2.70
2019-02-11T23:25:08.411Z,2.70
2019-02-11T23:27:34.558Z,2.70
2019-02-11T23:30:00.778Z,2.80
2019-02-11T23:32:26.870Z,2.70
2019-02-11T23:34:53.004Z,2.70
2019-02-11T23:37:19.226Z,2.80
2019-02-11T23:39:45.310Z,2.80
2019-02-11T23:42:11.458Z,2.80
2019-02-11T23:44:37.630Z,2.90
2019-02-11T23:47:03.930Z,3.00
2019-02-11T23:49:37.360Z,3.10
2019-02-11T23:52:03.558Z,3.20
2019-02-11T23:54:29.654Z,3.20
2019-02-11T23:56:55.800Z,3.10
2019-02-11T23:59:22.182Z,3.20
